Airfield :
LOGIN :

Register | Disclaimer

   EN    FR    IT 

 










Legend :    VFR   Marginal VFR   IFR   Intensive IFR   Very Intensive IFR
Visi :
Ceiling :
>= 8 km
>= 3000ft
5 to 8 km
1000 to 3000 ft
1500m to 5 km
500 to 1000 ft
800 to 1500m
200 to 500 ft
< 800m
< 200 ft
Symbols :   Thunderstorms  Fog  Heavy snow  Heavy precipitations  Wind > 20 kt
SIGMETs :     Misc.  Thunderstorms  Icing  Turbulence  Mountain Waves  Volcanic Ashes






- Airport Elevation : 330 ft
- IATA code : LVA


LFOV - Laval-Entrammes

CURRENT METAR :
  • 201830Z AUTO 33006KT 7000 RA FEW047/// OVC068/// ///TCU 11/11 Q1009

EXPIRED METARs :
  • 201800Z AUTO 33006KT 9000 -RA FEW015/// BKN050/// OVC068/// ///TCU 11/11 Q1009
  • 201730Z AUTO 33006KT 9999 -RA FEW018/// OVC050/// ///TCU 11/11 Q1008
  • 201700Z AUTO 33006KT 9999 -RA BKN017/// BKN036/// BKN044/// ///TCU 11/11 Q1008
  • 201630Z AUTO 34008KT 9999 -RA FEW033/// BKN040/// BKN046/// ///TCU 12/10 Q1008
  • 201600Z AUTO 35008KT 9999 -RA SCT030 SCT036 OVC052 12/10 Q1008

TAF N/A



MET'MAP, your aeronautical weather chart ! - Copyright ORBIFLY December 2007 - Disclaimer

ORBIFLY MET'MAP TEAM :

Programming & Development : Alexandra Zaïnal
Concept & Development : Baudouin d'Aumeries
Co-Development & Prog : Marc-Olivier Méhu
Technical & hardware support : Manuel Goepfert

Contact : metmap@orbifly.com




SOURCES & CREDITS :

   NOAA